createdAt,value
2023-03-14T00:00:29.018Z,986.40
2023-03-14T00:01:28.992Z,986.48
2023-03-14T00:02:29.018Z,986.44
2023-03-14T00:03:28.957Z,986.51
2023-03-14T00:04:28.944Z,986.49
2023-03-14T00:05:28.960Z,986.57
2023-03-14T00:06:28.931Z,986.53
2023-03-14T00:07:28.910Z,986.49
2023-03-14T00:08:28.903Z,986.51
2023-03-14T00:09:33.907Z,986.53
2023-03-14T00:10:28.881Z,986.56
2023-03-14T00:11:28.873Z,986.59
2023-03-14T00:12:28.853Z,986.43
2023-03-14T00:13:28.864Z,986.46
2023-03-14T00:14:28.837Z,986.44
2023-03-14T00:15:28.827Z,986.35
2023-03-14T00:16:28.815Z,986.45
2023-03-14T00:17:28.814Z,986.36
2023-03-14T00:18:28.791Z,986.39
2023-03-14T00:19:28.770Z,986.35
2023-03-14T00:20:33.798Z,986.35
2023-03-14T00:21:28.748Z,986.35
2023-03-14T00:22:28.741Z,986.41
2023-03-14T00:23:28.748Z,986.48
2023-03-14T00:24:28.717Z,986.37
2023-03-14T00:25:28.714Z,986.46
2023-03-14T00:26:28.693Z,986.30
2023-03-14T00:27:28.690Z,986.40
2023-03-14T00:28:28.673Z,986.41
2023-03-14T00:29:28.707Z,986.44
2023-03-14T00:30:28.661Z,986.34
2023-03-14T00:31:33.681Z,986.32
2023-03-14T00:32:28.696Z,986.31
2023-03-14T00:33:28.616Z,986.32
2023-03-14T00:34:28.602Z,986.39
2023-03-14T00:35:28.629Z,986.37
2023-03-14T00:36:28.585Z,986.33
2023-03-14T00:37:28.569Z,986.38
2023-03-14T00:38:28.560Z,986.30
2023-03-14T00:39:28.550Z,986.38
2023-03-14T00:40:28.547Z,986.28
2023-03-14T00:41:28.544Z,986.28
2023-03-14T00:42:33.533Z,986.26
2023-03-14T00:43:28.498Z,986.28
2023-03-14T00:44:28.492Z,986.23
2023-03-14T00:45:28.525Z,986.14
2023-03-14T00:46:28.522Z,986.14
2023-03-14T00:47:28.489Z,986.15
2023-03-14T00:48:28.454Z,986.16
2023-03-14T00:49:28.441Z,986.11
2023-03-14T00:50:28.433Z,986.11
2023-03-14T00:51:28.417Z,986.21
2023-03-14T00:52:28.404Z,986.11
2023-03-14T00:53:33.484Z,986.07
2023-03-14T00:54:28.384Z,986.09
2023-03-14T00:55:28.383Z,986.21
2023-03-14T00:56:28.356Z,986.09
2023-03-14T00:57:28.346Z,986.11
2023-03-14T00:58:28.330Z,986.05
2023-03-14T00:59:28.350Z,986.12
2023-03-14T01:00:28.317Z,986.20
2023-03-14T01:01:28.434Z,986.20
2023-03-14T01:02:28.325Z,986.21
2023-03-14T01:03:28.278Z,986.25
2023-03-14T01:04:33.292Z,986.23
2023-03-14T01:05:28.300Z,986.26
2023-03-14T01:06:28.253Z,986.29
2023-03-14T01:07:28.304Z,986.29
2023-03-14T01:08:28.233Z,986.29
2023-03-14T01:09:28.215Z,986.26
2023-03-14T01:10:28.220Z,986.32
2023-03-14T01:11:28.232Z,986.33
2023-03-14T01:12:28.179Z,986.35
2023-03-14T01:13:28.167Z,986.35
2023-03-14T01:14:28.159Z,986.36
2023-03-14T01:15:33.195Z,986.38
2023-03-14T01:16:28.202Z,986.27
2023-03-14T01:17:28.174Z,986.25
2023-03-14T01:18:28.113Z,986.13
2023-03-14T01:19:28.136Z,986.17
2023-03-14T01:20:28.107Z,986.16
2023-03-14T01:21:28.093Z,986.15
2023-03-14T01:22:28.069Z,986.26
2023-03-14T01:23:28.105Z,986.15
2023-03-14T01:24:28.052Z,986.11
2023-03-14T01:25:28.034Z,986.13
2023-03-14T01:26:33.057Z,986.09
2023-03-14T01:27:28.013Z,986.17
2023-03-14T01:28:28.002Z,986.14
2023-03-14T01:29:28.027Z,986.10
2023-03-14T01:30:27.984Z,986.01
2023-03-14T01:31:28.044Z,986.00
2023-03-14T01:32:27.988Z,985.98
2023-03-14T01:33:27.972Z,985.93
2023-03-14T01:34:27.940Z,985.99
2023-03-14T01:35:27.949Z,986.01
2023-03-14T01:36:30.341Z,985.97
2023-03-14T01:37:32.936Z,985.95
2023-03-14T01:38:27.892Z,985.97
2023-03-14T01:39:27.877Z,985.91
2023-03-14T01:40:27.868Z,985.84
2023-03-14T01:41:27.928Z,985.85
2023-03-14T01:42:27.854Z,985.80
2023-03-14T01:43:27.854Z,985.88
2023-03-14T01:44:27.827Z,985.84
2023-03-14T01:45:27.828Z,985.79
2023-03-14T01:46:27.816Z,985.87
2023-03-14T01:47:27.831Z,985.81
2023-03-14T01:48:32.828Z,985.85
2023-03-14T01:49:27.771Z,985.73
2023-03-14T01:50:27.759Z,985.72
2023-03-14T01:51:27.752Z,985.69
2023-03-14T01:52:27.739Z,985.64
2023-03-14T01:53:27.734Z,985.63
2023-03-14T01:54:27.714Z,985.62
2023-03-14T01:55:27.701Z,985.61
2023-03-14T01:56:27.706Z,985.54
2023-03-14T01:57:27.679Z,985.53
2023-03-14T01:58:27.671Z,985.49
2023-03-14T01:59:32.759Z,985.61
2023-03-14T02:00:27.650Z,985.42
2023-03-14T02:01:27.667Z,985.38
2023-03-14T02:02:27.627Z,985.35
2023-03-14T02:03:27.654Z,985.36
2023-03-14T02:04:27.626Z,985.27
2023-03-14T02:05:27.610Z,985.34
2023-03-14T02:06:27.602Z,985.33
2023-03-14T02:07:27.576Z,985.33
2023-03-14T02:08:27.561Z,985.31
2023-03-14T02:09:27.549Z,985.30
2023-03-14T02:10:32.556Z,985.32
2023-03-14T02:11:27.553Z,985.26
2023-03-14T02:12:27.510Z,985.31
2023-03-14T02:13:27.499Z,985.35
2023-03-14T02:14:27.488Z,985.32
2023-03-14T02:15:27.478Z,985.27
2023-03-14T02:16:27.508Z,985.16
2023-03-14T02:17:27.461Z,985.16
2023-03-14T02:18:27.446Z,985.22
2023-03-14T02:19:27.432Z,985.19
2023-03-14T02:20:27.446Z,985.23
2023-03-14T02:21:32.456Z,985.22
2023-03-14T02:22:27.393Z,985.14
2023-03-14T02:23:27.412Z,985.01
2023-03-14T02:24:27.390Z,985.09
2023-03-14T02:25:27.362Z,985.13
2023-03-14T02:26:27.349Z,985.10
2023-03-14T02:27:27.350Z,985.17
2023-03-14T02:28:27.330Z,985.21
2023-03-14T02:29:27.332Z,985.15
2023-03-14T02:30:27.323Z,985.16
2023-03-14T02:31:27.331Z,985.09
2023-03-14T02:32:32.322Z,985.09
2023-03-14T02:33:27.274Z,985.05
2023-03-14T02:34:27.260Z,985.07
2023-03-14T02:35:27.269Z,985.01
2023-03-14T02:36:27.260Z,984.97
2023-03-14T02:37:27.237Z,985.04
2023-03-14T02:38:27.216Z,984.97
2023-03-14T02:39:27.209Z,985.02
2023-03-14T02:40:27.191Z,984.89
2023-03-14T02:41:27.207Z,984.86
2023-03-14T02:42:27.176Z,984.82
2023-03-14T02:43:32.192Z,984.90
2023-03-14T02:44:27.151Z,984.99
2023-03-14T02:45:27.140Z,985.02
2023-03-14T02:46:27.124Z,984.96
2023-03-14T02:47:27.154Z,984.91
2023-03-14T02:48:27.104Z,984.80
2023-03-14T02:49:27.096Z,984.84
2023-03-14T02:50:27.078Z,984.75
2023-03-14T02:51:27.074Z,984.79
2023-03-14T02:52:27.174Z,984.87
2023-03-14T02:53:27.086Z,984.90
2023-03-14T02:54:32.058Z,984.91
2023-03-14T02:55:27.027Z,984.82
2023-03-14T02:56:27.020Z,984.99
2023-03-14T02:57:27.014Z,984.87
2023-03-14T02:58:27.006Z,984.89
2023-03-14T02:59:27.000Z,984.90
2023-03-14T03:00:26.971Z,984.86
2023-03-14T03:01:27.019Z,984.84
2023-03-14T03:02:26.960Z,984.81
2023-03-14T03:03:26.958Z,984.72
2023-03-14T03:04:26.932Z,984.70
2023-03-14T03:05:31.961Z,984.69
2023-03-14T03:06:26.900Z,984.74
2023-03-14T03:07:26.902Z,984.74
2023-03-14T03:08:26.897Z,984.69
2023-03-14T03:09:26.872Z,984.63
2023-03-14T03:10:26.855Z,984.68
2023-03-14T03:11:26.869Z,984.63
2023-03-14T03:12:26.843Z,984.66
2023-03-14T03:13:26.825Z,984.74
2023-03-14T03:14:26.813Z,984.75
2023-03-14T03:15:26.806Z,984.78
2023-03-14T03:16:31.860Z,984.68
2023-03-14T03:17:26.836Z,984.66
2023-03-14T03:18:26.770Z,984.61
2023-03-14T03:19:26.761Z,984.63
2023-03-14T03:20:26.762Z,984.61
2023-03-14T03:21:26.740Z,984.58
2023-03-14T03:22:26.733Z,984.62
2023-03-14T03:23:26.736Z,984.54
2023-03-14T03:24:26.729Z,984.47
2023-03-14T03:25:26.697Z,984.39
2023-03-14T03:26:26.689Z,984.30
2023-03-14T03:27:31.708Z,984.24
2023-03-14T03:28:26.664Z,984.27
2023-03-14T03:29:26.682Z,984.30
2023-03-14T03:30:26.644Z,984.28
2023-03-14T03:31:26.631Z,984.21
2023-03-14T03:32:26.661Z,984.21
2023-03-14T03:33:26.614Z,984.20
2023-03-14T03:34:26.604Z,984.19
2023-03-14T03:35:26.614Z,984.19
2023-03-14T03:36:26.586Z,984.17
2023-03-14T03:37:26.607Z,984.14
2023-03-14T03:38:31.579Z,984.06
2023-03-14T03:39:26.539Z,984.01
2023-03-14T03:40:26.555Z,984.16
2023-03-14T03:41:26.553Z,984.13
2023-03-14T03:42:26.519Z,984.12
2023-03-14T03:43:26.507Z,983.98
2023-03-14T03:44:26.488Z,984.00
2023-03-14T03:45:26.475Z,983.88
2023-03-14T03:46:26.574Z,983.98
2023-03-14T03:47:26.501Z,983.94
2023-03-14T03:48:26.447Z,983.83
2023-03-14T03:49:31.454Z,983.87
2023-03-14T03:50:26.422Z,983.90
2023-03-14T03:51:26.430Z,983.90
2023-03-14T03:52:26.409Z,983.92
2023-03-14T03:53:33.160Z,983.96
2023-03-14T03:54:26.385Z,983.92
2023-03-14T03:55:26.366Z,984.00
2023-03-14T03:56:26.385Z,984.01
2023-03-14T03:57:26.366Z,983.99
2023-03-14T03:58:26.343Z,983.93
2023-03-14T03:59:26.344Z,983.96
2023-03-14T04:00:31.337Z,983.92
2023-03-14T04:01:26.303Z,983.92
2023-03-14T04:02:26.376Z,983.94
2023-03-14T04:03:26.384Z,984.00
2023-03-14T04:04:26.283Z,983.97
2023-03-14T04:05:26.284Z,984.03
2023-03-14T04:06:26.308Z,984.13
2023-03-14T04:07:26.256Z,984.17
2023-03-14T04:08:26.233Z,984.08
2023-03-14T04:09:26.212Z,984.16
2023-03-14T04:10:26.204Z,984.17
2023-03-14T04:11:31.358Z,984.18
2023-03-14T04:12:26.197Z,984.10
2023-03-14T04:13:26.175Z,984.08
2023-03-14T04:14:26.159Z,984.05
2023-03-14T04:15:26.141Z,984.08
2023-03-14T04:16:26.173Z,984.04
2023-03-14T04:17:26.128Z,984.02
2023-03-14T04:18:26.149Z,984.07
2023-03-14T04:19:26.098Z,983.99
2023-03-14T04:20:26.089Z,984.06
2023-03-14T04:21:26.078Z,984.01
2023-03-14T04:22:31.090Z,983.98
2023-03-14T04:23:26.072Z,984.05
2023-03-14T04:24:26.092Z,983.94
2023-03-14T04:25:26.116Z,983.93
2023-03-14T04:26:26.036Z,984.00
2023-03-14T04:27:26.033Z,983.92
2023-03-14T04:28:26.012Z,983.88
2023-03-14T04:29:25.993Z,983.85
2023-03-14T04:30:26.027Z,983.88
2023-03-14T04:31:26.076Z,983.81
2023-03-14T04:32:25.976Z,983.77
2023-03-14T04:33:30.977Z,983.82
2023-03-14T04:34:25.930Z,983.75
2023-03-14T04:35:25.922Z,983.68
2023-03-14T04:36:25.921Z,983.78
2023-03-14T04:37:25.899Z,983.77
2023-03-14T04:38:25.898Z,983.75
2023-03-14T04:39:25.882Z,983.76
2023-03-14T04:40:25.865Z,983.76
2023-03-14T04:41:25.854Z,983.75
2023-03-14T04:42:25.863Z,983.77
2023-03-14T04:43:25.861Z,983.73
2023-03-14T04:44:30.844Z,983.73
2023-03-14T04:45:25.806Z,983.70
2023-03-14T04:46:25.886Z,983.70
2023-03-14T04:47:25.786Z,983.74
2023-03-14T04:48:25.809Z,983.61
2023-03-14T04:49:25.763Z,983.64
2023-03-14T04:50:25.764Z,983.58
2023-03-14T04:51:25.744Z,983.63
2023-03-14T04:52:25.733Z,983.49
2023-03-14T04:53:25.739Z,983.58
2023-03-14T04:54:25.757Z,983.61
2023-03-14T04:55:31.758Z,983.66
2023-03-14T04:56:25.694Z,983.58
2023-03-14T04:57:25.678Z,983.66
2023-03-14T04:58:25.676Z,983.69
2023-03-14T04:59:25.686Z,983.69
2023-03-14T05:00:25.676Z,983.73
2023-03-14T05:01:25.709Z,983.68
2023-03-14T05:02:25.621Z,983.72
2023-03-14T05:03:25.617Z,983.63
2023-03-14T05:04:25.606Z,983.69
2023-03-14T05:05:25.584Z,983.58
2023-03-14T05:06:30.652Z,983.58
2023-03-14T05:07:25.559Z,983.57
2023-03-14T05:08:25.573Z,983.50
2023-03-14T05:09:25.539Z,983.61
2023-03-14T05:10:25.557Z,983.52
2023-03-14T05:11:25.513Z,983.55
2023-03-14T05:12:25.543Z,983.58
2023-03-14T05:13:25.513Z,983.50
2023-03-14T05:14:25.491Z,983.48
2023-03-14T05:15:25.489Z,983.44
2023-03-14T05:16:25.535Z,983.61
2023-03-14T05:17:30.467Z,983.48
2023-03-14T05:18:25.489Z,983.43
2023-03-14T05:19:25.424Z,983.45
2023-03-14T05:20:25.413Z,983.45
2023-03-14T05:21:25.411Z,983.40
2023-03-14T05:22:25.398Z,983.43
2023-03-14T05:23:25.409Z,983.42
2023-03-14T05:24:25.419Z,983.42
2023-03-14T05:25:25.394Z,983.42
2023-03-14T05:26:25.352Z,983.56
2023-03-14T05:27:25.335Z,983.52
2023-03-14T05:28:30.362Z,983.46
2023-03-14T05:29:25.316Z,983.56
2023-03-14T05:30:25.329Z,983.47
2023-03-14T05:31:25.338Z,983.53
2023-03-14T05:32:25.333Z,983.55
2023-03-14T05:33:25.275Z,983.54
2023-03-14T05:34:25.277Z,983.52
2023-03-14T05:35:25.255Z,983.52
2023-03-14T05:36:25.333Z,983.50
2023-03-14T05:37:25.227Z,983.56
2023-03-14T05:38:25.235Z,983.54
2023-03-14T05:39:30.226Z,983.57
2023-03-14T05:40:25.205Z,983.59
2023-03-14T05:41:25.200Z,983.55
2023-03-14T05:42:25.194Z,983.50
2023-03-14T05:43:25.171Z,983.55
2023-03-14T05:44:25.157Z,983.60
2023-03-14T05:45:25.148Z,983.53
2023-03-14T05:46:25.198Z,983.54
2023-03-14T05:47:25.215Z,983.48
2023-03-14T05:48:25.177Z,983.54
2023-03-14T05:49:25.096Z,983.55
2023-03-14T05:50:30.113Z,983.54
2023-03-14T05:51:25.080Z,983.58
2023-03-14T05:52:25.067Z,983.55
2023-03-14T05:53:25.062Z,983.53
2023-03-14T05:54:25.088Z,983.51
2023-03-14T05:55:25.033Z,983.54
2023-03-14T05:56:25.021Z,983.62
2023-03-14T05:57:25.006Z,983.52
2023-03-14T05:58:25.010Z,983.55
2023-03-14T05:59:24.996Z,983.49
2023-03-14T06:00:25.006Z,983.54
2023-03-14T06:01:29.984Z,983.57
2023-03-14T06:02:25.022Z,983.58
2023-03-14T06:03:25.070Z,983.52
2023-03-14T06:04:24.931Z,983.45
2023-03-14T06:05:24.916Z,983.45
2023-03-14T06:06:24.925Z,983.37
2023-03-14T06:07:24.898Z,983.48
2023-03-14T06:08:24.882Z,983.51
2023-03-14T06:09:24.870Z,983.35
2023-03-14T06:10:24.865Z,983.45
2023-03-14T06:11:24.850Z,983.47
2023-03-14T06:12:29.908Z,983.47
2023-03-14T06:13:24.831Z,983.45
2023-03-14T06:14:24.820Z,983.44
2023-03-14T06:15:24.802Z,983.46
2023-03-14T06:16:24.874Z,983.44
2023-03-14T06:17:24.793Z,983.36
2023-03-14T06:18:24.800Z,983.44
2023-03-14T06:19:24.782Z,983.38
2023-03-14T06:20:24.761Z,983.39
2023-03-14T06:21:24.740Z,983.44
2023-03-14T06:22:24.742Z,983.44
2023-03-14T06:23:29.746Z,983.48
2023-03-14T06:24:24.746Z,983.47
2023-03-14T06:25:24.700Z,983.44
2023-03-14T06:26:24.692Z,983.41
2023-03-14T06:27:24.694Z,983.32
2023-03-14T06:28:26.068Z,983.38
2023-03-14T06:29:24.652Z,983.30
2023-03-14T06:30:24.654Z,983.30
2023-03-14T06:31:24.636Z,983.32
2023-03-14T06:32:24.680Z,983.40
2023-03-14T06:33:24.607Z,983.30
2023-03-14T06:34:29.646Z,983.27
2023-03-14T06:35:24.590Z,983.43
2023-03-14T06:36:24.625Z,983.38
2023-03-14T06:37:24.577Z,983.41
2023-03-14T06:38:24.552Z,983.38
2023-03-14T06:39:24.539Z,983.28
2023-03-14T06:40:24.537Z,983.38
2023-03-14T06:41:24.526Z,983.37
2023-03-14T06:42:24.532Z,983.38
2023-03-14T06:43:24.501Z,983.40
2023-03-14T06:44:24.526Z,983.34
2023-03-14T06:45:29.500Z,983.36
2023-03-14T06:46:24.514Z,983.37
2023-03-14T06:47:24.466Z,983.29
2023-03-14T06:48:24.444Z,983.34
2023-03-14T06:49:24.451Z,983.31
2023-03-14T06:50:24.483Z,983.29
2023-03-14T06:51:24.413Z,983.29
2023-03-14T06:52:24.403Z,983.32
2023-03-14T06:53:24.388Z,983.35
2023-03-14T06:54:24.376Z,983.33
2023-03-14T06:55:24.381Z,983.30
2023-03-14T06:56:29.378Z,983.23
2023-03-14T06:57:24.370Z,983.24
2023-03-14T06:58:24.337Z,983.37
2023-03-14T06:59:24.340Z,983.26
2023-03-14T07:00:24.317Z,983.31
2023-03-14T07:01:24.402Z,983.29
2023-03-14T07:02:36.017Z,983.36
2023-03-14T07:03:24.288Z,983.45
2023-03-14T07:04:24.297Z,983.45
2023-03-14T07:05:24.252Z,983.47
2023-03-14T07:06:24.283Z,983.42
2023-03-14T07:07:29.270Z,983.37
2023-03-14T07:08:24.281Z,983.44
2023-03-14T07:09:24.213Z,983.43
2023-03-14T07:10:24.199Z,983.38
2023-03-14T07:11:24.184Z,983.43
2023-03-14T07:12:24.182Z,983.40
2023-03-14T07:13:24.160Z,983.36
2023-03-14T07:14:24.226Z,983.40
2023-03-14T07:15:24.197Z,983.47
2023-03-14T07:16:24.126Z,983.38
2023-03-14T07:17:24.146Z,983.45
2023-03-14T07:18:29.221Z,983.46
2023-03-14T07:19:24.100Z,983.48
2023-03-14T07:20:31.680Z,983.53
2023-03-14T07:21:24.075Z,983.42
2023-03-14T07:22:24.204Z,983.52
2023-03-14T07:23:24.053Z,983.45
2023-03-14T07:24:24.042Z,983.45
2023-03-14T07:25:24.039Z,983.47
2023-03-14T07:26:24.075Z,983.44
2023-03-14T07:27:24.012Z,983.45
2023-03-14T07:28:24.001Z,983.58
2023-03-14T07:29:29.038Z,983.59
2023-03-14T07:30:23.994Z,983.53
2023-03-14T07:31:24.006Z,983.61
2023-03-14T07:32:23.994Z,983.62
2023-03-14T07:33:23.944Z,983.61
2023-03-14T07:34:23.939Z,983.66
2023-03-14T07:35:23.918Z,983.58
2023-03-14T07:36:23.910Z,983.59
2023-03-14T07:37:23.905Z,983.67
2023-03-14T07:38:23.922Z,983.70
2023-03-14T07:39:23.878Z,983.68
2023-03-14T07:40:28.917Z,983.66
2023-03-14T07:41:23.859Z,983.57
2023-03-14T07:42:23.846Z,983.61
2023-03-14T07:43:23.831Z,983.67
2023-03-14T07:44:23.818Z,983.63
2023-03-14T07:45:25.175Z,983.67
2023-03-14T07:46:23.900Z,983.60
2023-03-14T07:47:23.804Z,983.66
2023-03-14T07:48:23.791Z,983.60
2023-03-14T07:49:23.766Z,983.61
2023-03-14T07:50:23.752Z,983.64
2023-03-14T07:51:28.765Z,983.64
2023-03-14T07:52:23.783Z,983.73
2023-03-14T07:53:23.719Z,983.66
2023-03-14T07:54:23.737Z,983.65
2023-03-14T07:55:23.699Z,983.56
2023-03-14T07:56:23.683Z,983.68
2023-03-14T07:57:23.675Z,983.65
2023-03-14T07:58:23.695Z,983.59
2023-03-14T07:59:23.659Z,983.66
2023-03-14T08:00:23.642Z,983.64
2023-03-14T08:01:23.633Z,983.63
2023-03-14T08:02:28.701Z,983.60
2023-03-14T08:03:23.610Z,983.67
2023-03-14T08:04:23.611Z,983.52
2023-03-14T08:05:23.583Z,983.54
2023-03-14T08:06:23.572Z,983.50
2023-03-14T08:07:23.561Z,983.53
2023-03-14T08:08:23.557Z,983.54
2023-03-14T08:09:23.543Z,983.54
2023-03-14T08:10:23.592Z,983.63
2023-03-14T08:11:23.521Z,983.57
2023-03-14T08:12:23.503Z,983.49
2023-03-14T08:13:28.559Z,983.53
2023-03-14T08:14:23.485Z,983.50
2023-03-14T08:15:23.475Z,983.49
2023-03-14T08:16:23.516Z,983.57
2023-03-14T08:17:23.462Z,983.54
2023-03-14T08:18:23.449Z,983.45
2023-03-14T08:19:23.428Z,983.45
2023-03-14T08:20:23.429Z,983.54
2023-03-14T08:21:23.407Z,983.47
2023-03-14T08:22:23.417Z,983.51
2023-03-14T08:23:23.394Z,983.44
2023-03-14T08:24:28.396Z,983.43
2023-03-14T08:25:23.433Z,983.41
2023-03-14T08:26:23.398Z,983.45
2023-03-14T08:27:23.361Z,983.44
2023-03-14T08:28:23.392Z,983.42
2023-03-14T08:29:23.321Z,983.44
2023-03-14T08:30:23.397Z,983.57
2023-03-14T08:31:23.467Z,983.52
2023-03-14T08:32:23.327Z,983.54
2023-03-14T08:33:23.292Z,983.53
2023-03-14T08:34:23.270Z,983.58
2023-03-14T08:35:28.277Z,983.66
2023-03-14T08:36:24.275Z,983.62
2023-03-14T08:37:26.576Z,983.59
2023-03-14T08:38:23.226Z,983.64
2023-03-14T08:39:23.297Z,983.70
2023-03-14T08:40:23.207Z,983.70
2023-03-14T08:41:23.181Z,983.67
2023-03-14T08:42:23.200Z,983.69
2023-03-14T08:43:23.169Z,983.66
2023-03-14T08:44:23.267Z,983.68
2023-03-14T08:45:23.135Z,983.64
2023-03-14T08:46:28.233Z,983.71
2023-03-14T08:47:23.117Z,983.72
2023-03-14T08:48:23.108Z,983.78
2023-03-14T08:49:23.205Z,983.80
2023-03-14T08:50:23.182Z,983.78
2023-03-14T08:51:23.072Z,983.86
2023-03-14T08:52:23.079Z,983.85
2023-03-14T08:53:23.055Z,983.77
2023-03-14T08:54:23.034Z,983.82
2023-03-14T08:55:23.028Z,983.84
2023-03-14T08:56:25.866Z,983.85
2023-03-14T08:57:28.038Z,983.84
2023-03-14T08:58:23.016Z,983.80
2023-03-14T08:59:22.989Z,983.89
2023-03-14T09:00:23.036Z,983.93
2023-03-14T09:01:23.101Z,983.87
2023-03-14T09:02:22.968Z,983.94
2023-03-14T09:03:22.955Z,984.00
2023-03-14T09:04:23.077Z,983.91
2023-03-14T09:05:22.912Z,983.96
2023-03-14T09:06:22.904Z,984.00
2023-03-14T09:07:22.886Z,984.05
2023-03-14T09:08:27.905Z,983.96
2023-03-14T09:09:22.869Z,983.90
2023-03-14T09:10:22.988Z,983.90
2023-03-14T09:11:22.842Z,983.96
2023-03-14T09:12:22.837Z,983.95
2023-03-14T09:13:22.867Z,983.94
2023-03-14T09:14:23.142Z,983.97
2023-03-14T09:15:22.808Z,984.01
2023-03-14T09:16:22.839Z,983.92
2023-03-14T09:17:22.781Z,983.94
2023-03-14T09:18:22.783Z,983.95
2023-03-14T09:19:27.782Z,984.01
2023-03-14T09:20:22.827Z,984.02
2023-03-14T09:21:22.732Z,984.00
2023-03-14T09:22:22.765Z,983.97
2023-03-14T09:23:22.723Z,984.02
2023-03-14T09:24:22.698Z,983.86
2023-03-14T09:25:22.694Z,983.85
2023-03-14T09:26:22.675Z,983.93
2023-03-14T09:27:22.670Z,983.95
2023-03-14T09:28:22.673Z,983.94
2023-03-14T09:29:22.664Z,983.90
2023-03-14T09:30:27.657Z,983.98
2023-03-14T09:31:22.696Z,983.93
2023-03-14T09:32:22.654Z,983.91
2023-03-14T09:33:22.619Z,983.83
2023-03-14T09:34:22.602Z,983.94
2023-03-14T09:35:22.618Z,984.01
2023-03-14T09:36:22.566Z,983.99
2023-03-14T09:37:22.553Z,983.89
2023-03-14T09:38:22.556Z,983.93
2023-03-14T09:39:22.532Z,984.01
2023-03-14T09:40:22.538Z,983.93
2023-03-14T09:41:27.539Z,983.92
2023-03-14T09:42:22.510Z,983.89
2023-03-14T09:43:22.498Z,983.95
2023-03-14T09:44:22.478Z,983.88
2023-03-14T09:45:23.732Z,983.96
2023-03-14T09:46:22.504Z,983.83
2023-03-14T09:47:22.441Z,983.85
2023-03-14T09:48:22.439Z,983.92
2023-03-14T09:49:22.425Z,983.88
2023-03-14T09:50:22.405Z,983.90
2023-03-14T09:51:22.399Z,983.97
2023-03-14T09:52:27.480Z,983.91
2023-03-14T09:53:22.376Z,983.93
2023-03-14T09:54:22.353Z,983.92
2023-03-14T09:55:22.366Z,983.94
2023-03-14T09:56:22.333Z,984.02
2023-03-14T09:57:22.334Z,983.98
2023-03-14T09:58:22.368Z,984.01
2023-03-14T09:59:22.304Z,984.00
2023-03-14T10:00:22.321Z,983.94
2023-03-14T10:01:22.390Z,984.14
2023-03-14T10:02:22.270Z,984.02
2023-03-14T10:03:27.292Z,984.00
2023-03-14T10:04:22.335Z,983.98
2023-03-14T10:05:22.252Z,984.05
2023-03-14T10:06:22.217Z,984.08
2023-03-14T10:07:22.216Z,984.06
2023-03-14T10:08:22.204Z,984.04
2023-03-14T10:09:22.215Z,984.05
2023-03-14T10:10:22.193Z,984.04
2023-03-14T10:11:22.170Z,984.04
2023-03-14T10:12:22.192Z,983.96
2023-03-14T10:13:22.145Z,984.07
2023-03-14T10:14:27.157Z,983.98
2023-03-14T10:15:22.116Z,984.04
2023-03-14T10:16:22.159Z,984.01
2023-03-14T10:17:22.131Z,984.01
2023-03-14T10:18:22.086Z,984.11
2023-03-14T10:19:22.107Z,984.02
2023-03-14T10:20:22.065Z,984.02
2023-03-14T10:21:22.052Z,983.95
2023-03-14T10:22:22.053Z,983.91
2023-03-14T10:23:22.028Z,983.97
2023-03-14T10:24:22.056Z,984.01
2023-03-14T10:25:27.027Z,984.04
2023-03-14T10:26:21.993Z,983.93
2023-03-14T10:27:21.983Z,983.92
2023-03-14T10:28:21.994Z,984.00
2023-03-14T10:29:21.972Z,983.89
2023-03-14T10:30:21.954Z,983.94
2023-03-14T10:31:21.942Z,983.89
2023-03-14T10:32:22.007Z,983.95
2023-03-14T10:33:21.943Z,983.97
2023-03-14T10:34:21.962Z,983.94
2023-03-14T10:35:21.900Z,983.91
2023-03-14T10:36:26.935Z,983.84
2023-03-14T10:37:21.875Z,983.96
2023-03-14T10:38:21.911Z,983.94
2023-03-14T10:39:21.860Z,983.99
2023-03-14T10:40:21.858Z,983.98
2023-03-14T10:41:21.831Z,983.95
2023-03-14T10:42:21.821Z,983.93
2023-03-14T10:43:21.842Z,983.99
2023-03-14T10:44:21.808Z,984.05
2023-03-14T10:45:21.785Z,983.99
2023-03-14T10:46:21.923Z,984.00
2023-03-14T10:47:26.785Z,984.10
2023-03-14T10:48:21.755Z,984.17
2023-03-14T10:49:21.767Z,984.00
2023-03-14T10:50:21.733Z,984.06
2023-03-14T10:51:21.721Z,984.10
2023-03-14T10:52:23.390Z,983.95
2023-03-14T10:53:21.697Z,984.02
2023-03-14T10:54:21.692Z,984.01
2023-03-14T10:55:21.671Z,983.98
2023-03-14T10:56:21.663Z,984.01
2023-03-14T10:57:21.650Z,984.04
2023-03-14T10:58:26.704Z,984.06
2023-03-14T10:59:21.635Z,984.08
2023-03-14T11:00:21.618Z,984.02
2023-03-14T11:01:21.646Z,984.06
2023-03-14T11:02:21.596Z,984.11
2023-03-14T11:03:21.588Z,984.02
2023-03-14T11:04:22.485Z,984.00
2023-03-14T11:05:21.647Z,984.10
2023-03-14T11:06:21.555Z,984.06
2023-03-14T11:07:21.547Z,984.01
2023-03-14T11:08:21.534Z,984.09
2023-03-14T11:09:26.549Z,984.10
2023-03-14T11:10:21.530Z,984.11
2023-03-14T11:11:21.494Z,984.12
2023-03-14T11:12:21.490Z,984.17
2023-03-14T11:13:21.483Z,984.22
2023-03-14T11:14:21.474Z,984.14
2023-03-14T11:15:21.452Z,984.19
2023-03-14T11:16:21.498Z,984.23
2023-03-14T11:17:21.427Z,984.22
2023-03-14T11:18:21.423Z,984.16
2023-03-14T11:19:21.490Z,984.24
2023-03-14T11:20:26.439Z,984.21
2023-03-14T11:21:21.385Z,984.22
2023-03-14T11:22:21.390Z,984.21
2023-03-14T11:23:21.364Z,984.22
2023-03-14T11:24:21.349Z,984.21
2023-03-14T11:25:21.347Z,984.26
2023-03-14T11:26:21.330Z,984.33
2023-03-14T11:27:21.313Z,984.30
2023-03-14T11:28:21.347Z,984.32
2023-03-14T11:29:21.294Z,984.35
2023-03-14T11:30:21.296Z,984.31
2023-03-14T11:31:26.320Z,984.39
2023-03-14T11:32:21.366Z,984.43
2023-03-14T11:33:21.248Z,984.39
2023-03-14T11:34:21.255Z,984.53
2023-03-14T11:35:21.233Z,984.52
2023-03-14T11:36:21.289Z,984.58
2023-03-14T11:37:21.205Z,984.71
2023-03-14T11:38:21.191Z,984.62
2023-03-14T11:39:21.194Z,984.61
2023-03-14T11:40:21.207Z,984.70
2023-03-14T11:41:21.157Z,984.74
2023-03-14T11:42:26.171Z,984.70
2023-03-14T11:43:21.135Z,984.82
2023-03-14T11:44:21.127Z,984.81
2023-03-14T11:45:21.113Z,984.98
2023-03-14T11:46:21.142Z,984.92
2023-03-14T11:47:21.091Z,984.89
2023-03-14T11:48:21.082Z,985.03
2023-03-14T11:49:21.071Z,984.96
2023-03-14T11:50:21.061Z,985.03
2023-03-14T11:51:21.075Z,985.12
2023-03-14T11:52:21.122Z,985.13
2023-03-14T11:53:26.049Z,985.15
2023-03-14T11:54:21.019Z,985.22
2023-03-14T11:55:21.000Z,985.24
2023-03-14T11:56:21.007Z,985.29
2023-03-14T11:57:20.977Z,985.29
2023-03-14T11:58:21.009Z,985.39
2023-03-14T11:59:20.978Z,985.40
2023-03-14T12:00:20.949Z,985.59
2023-03-14T12:01:20.939Z,985.47
2023-03-14T12:02:20.991Z,985.63
2023-03-14T12:03:20.909Z,985.65
2023-03-14T12:04:25.985Z,985.74
2023-03-14T12:05:20.890Z,985.73
2023-03-14T12:06:20.885Z,985.95
2023-03-14T12:07:20.885Z,985.92
2023-03-14T12:08:20.958Z,985.88
2023-03-14T12:09:20.845Z,985.88
2023-03-14T12:10:20.856Z,986.00
2023-03-14T12:11:20.829Z,986.06
2023-03-14T12:12:20.811Z,986.12
2023-03-14T12:13:20.803Z,986.18
2023-03-14T12:14:20.786Z,986.26
2023-03-14T12:15:25.794Z,986.16
2023-03-14T12:16:20.849Z,986.32
2023-03-14T12:17:20.759Z,986.30
2023-03-14T12:18:20.751Z,986.45
2023-03-14T12:19:20.748Z,986.58
2023-03-14T12:20:20.727Z,986.60
2023-03-14T12:21:20.705Z,986.64
2023-03-14T12:22:20.744Z,986.71
2023-03-14T12:23:20.684Z,986.68
2023-03-14T12:24:20.695Z,986.74
2023-03-14T12:25:20.670Z,986.83
2023-03-14T12:26:25.685Z,986.89
2023-03-14T12:27:20.636Z,986.86
2023-03-14T12:28:20.650Z,986.92